createdAt,value
2023-03-10T06:49:34.215Z,11.00
2023-03-10T06:52:36.155Z,11.80
2023-03-10T06:55:38.189Z,12.00
2023-03-10T06:58:41.466Z,12.50
2023-03-10T07:01:43.711Z,12.70
2023-03-10T07:04:46.305Z,12.70
2023-03-10T07:07:48.488Z,11.80
2023-03-10T07:10:51.959Z,11.00
2023-03-10T07:13:54.969Z,10.50
2023-03-10T07:16:58.543Z,10.20
2023-03-10T07:20:01.239Z,10.10
2023-03-10T07:23:04.047Z,10.30
2023-03-10T07:26:10.672Z,10.40
2023-03-10T07:29:12.985Z,10.60
2023-03-10T07:32:16.232Z,10.60
2023-03-10T07:35:18.596Z,10.40
2023-03-10T07:38:20.522Z,10.60
2023-03-10T07:41:22.906Z,10.50
2023-03-10T07:44:24.684Z,10.60
2023-03-10T07:47:26.562Z,10.60
2023-03-10T07:50:28.463Z,10.30
2023-03-10T07:53:30.827Z,10.20
2023-03-10T07:56:32.618Z,10.30
2023-03-10T07:59:34.490Z,10.30
2023-03-10T08:02:36.821Z,10.30
2023-03-10T08:05:46.671Z,10.10
2023-03-10T08:08:49.079Z,9.90
2023-03-10T08:11:51.018Z,9.70
2023-03-10T08:14:53.316Z,9.70
2023-03-10T08:17:55.108Z,9.70
2023-03-10T08:20:57.667Z,9.60
2023-03-10T08:23:59.551Z,9.30
2023-03-10T08:27:01.631Z,9.10
2023-03-10T08:30:03.483Z,9.00
2023-03-10T08:33:08.335Z,9.30
2023-03-10T08:36:14.100Z,9.60
2023-03-10T08:39:16.807Z,10.20
2023-03-10T08:42:18.567Z,10.90
2023-03-10T08:45:21.386Z,11.20
2023-03-10T08:48:23.515Z,11.60
2023-03-10T08:51:29.315Z,12.00
2023-03-10T08:54:32.706Z,12.00
2023-03-10T08:57:35.320Z,11.80
2023-03-10T09:00:40.116Z,12.20
2023-03-10T09:03:48.473Z,11.90
2023-03-10T09:06:58.181Z,11.50
2023-03-10T09:10:05.063Z,11.30
2023-03-10T09:13:14.028Z,11.30
2023-03-10T09:16:22.043Z,11.70
2023-03-10T09:19:28.264Z,12.30
2023-03-10T09:22:36.961Z,12.80
2023-03-10T09:25:41.952Z,12.70
2023-03-10T09:28:44.423Z,12.30
2023-03-10T09:31:48.505Z,11.10
2023-03-10T09:34:53.343Z,10.50
2023-03-10T09:37:55.366Z,10.00
2023-03-10T09:41:03.485Z,9.90
2023-03-10T09:44:15.753Z,10.20
2023-03-10T09:47:39.819Z,10.80
2023-03-10T09:50:47.258Z,11.20
2023-03-10T09:54:16.692Z,10.80
2023-03-10T09:57:25.652Z,10.90
2023-03-10T10:00:42.586Z,10.70
2023-03-10T10:03:53.722Z,10.40
2023-03-10T10:06:59.916Z,10.40
2023-03-10T10:10:27.990Z,10.30
2023-03-10T10:13:37.313Z,9.90
2023-03-10T10:16:49.537Z,10.00
2023-03-10T10:19:54.022Z,10.00
2023-03-10T10:22:56.060Z,9.80
2023-03-10T10:26:10.632Z,9.90
2023-03-10T10:29:37.079Z,10.10
2023-03-10T10:32:59.560Z,10.20
2023-03-10T10:36:05.362Z,10.00
2023-03-10T10:39:28.007Z,10.20
2023-03-10T10:42:34.280Z,10.10
2023-03-10T10:45:38.159Z,10.40
2023-03-10T10:48:48.729Z,10.40
2023-03-10T10:52:06.957Z,10.20
2023-03-10T10:55:26.899Z,10.50
2023-03-10T10:58:36.237Z,10.60
2023-03-10T11:01:57.264Z,10.60
2023-03-10T11:05:24.394Z,10.70
2023-03-10T11:08:38.143Z,11.00
2023-03-10T11:11:59.623Z,11.10
2023-03-10T11:15:24.926Z,11.20
2023-03-10T11:18:39.087Z,11.20
2023-03-10T11:21:45.501Z,10.90
2023-03-10T11:25:26.669Z,10.80
2023-03-10T11:28:50.677Z,11.00
2023-03-10T11:32:32.584Z,11.10
2023-03-10T11:35:49.326Z,10.90
2023-03-10T11:38:58.329Z,10.80
2023-03-10T11:42:26.281Z,10.90
2023-03-10T11:45:39.520Z,11.50
2023-03-10T11:49:08.548Z,11.20
2023-03-10T11:52:21.235Z,11.40
2023-03-10T11:55:24.040Z,11.60
2023-03-10T11:58:53.033Z,11.90
2023-03-10T12:02:00.374Z,11.80
2023-03-10T12:05:15.941Z,11.60
2023-03-10T12:08:19.769Z,11.40
2023-03-10T12:11:25.404Z,11.20
2023-03-10T12:14:27.350Z,11.30
2023-03-10T12:17:29.578Z,11.00
2023-03-10T12:20:33.101Z,11.40
2023-03-10T12:23:56.415Z,12.10
2023-03-10T12:27:01.301Z,12.30
2023-03-10T12:30:43.092Z,12.50
2023-03-10T12:33:45.917Z,12.50
2023-03-10T12:36:50.812Z,12.90
2023-03-10T12:39:52.493Z,12.80
2023-03-10T12:42:54.212Z,12.70
2023-03-10T12:46:00.573Z,12.20
2023-03-10T12:49:11.507Z,12.20
2023-03-10T12:52:27.455Z,11.70
2023-03-10T12:55:29.726Z,11.40
2023-03-10T12:58:34.268Z,11.40
2023-03-10T13:01:55.518Z,11.30
2023-03-10T13:05:06.670Z,10.90
2023-03-10T13:08:27.963Z,10.50
2023-03-10T13:11:37.916Z,10.30
2023-03-10T13:14:42.055Z,10.00
2023-03-10T13:17:43.716Z,9.60
2023-03-10T13:20:46.918Z,9.70
2023-03-10T13:23:48.648Z,9.70
2023-03-10T13:27:10.673Z,9.10
2023-03-10T13:30:24.259Z,9.00
2023-03-10T13:33:27.671Z,8.90
2023-03-10T13:36:37.773Z,9.00
2023-03-10T13:39:42.641Z,9.20
2023-03-10T13:42:48.115Z,9.50
2023-03-10T13:45:57.151Z,9.70
2023-03-10T13:49:14.408Z,9.90
2023-03-10T13:52:21.895Z,9.50
2023-03-10T13:55:24.299Z,9.30
2023-03-10T13:58:26.776Z,9.40
2023-03-10T14:01:32.649Z,9.00
2023-03-10T14:04:51.932Z,8.90
2023-03-10T14:08:00.665Z,8.90
2023-03-10T14:11:32.105Z,8.80
2023-03-10T14:14:36.537Z,8.50
2023-03-10T14:17:39.420Z,8.40
2023-03-10T14:20:43.949Z,8.40
2023-03-10T14:23:45.955Z,8.40
2023-03-10T14:26:47.986Z,8.40
2023-03-10T14:29:53.984Z,8.40
2023-03-10T14:32:58.290Z,8.30
2023-03-10T14:36:00.030Z,8.20
2023-03-10T14:39:02.008Z,8.20
2023-03-10T14:42:04.727Z,8.10
2023-03-10T14:45:34.042Z,8.00
2023-03-10T14:48:39.888Z,7.90
2023-03-10T14:51:41.777Z,7.90
2023-03-10T14:54:44.388Z,7.80
2023-03-10T14:57:48.171Z,7.70
2023-03-10T15:00:53.767Z,7.60
2023-03-10T15:03:55.431Z,7.60
2023-03-10T15:06:57.185Z,7.60
2023-03-10T15:10:10.604Z,7.50
2023-03-10T15:13:15.694Z,7.50
2023-03-10T15:16:17.475Z,7.50
2023-03-10T15:19:27.503Z,7.30
2023-03-10T15:22:29.252Z,7.10
2023-03-10T15:25:31.169Z,7.20
2023-03-10T15:28:32.974Z,7.30
2023-03-10T15:31:34.833Z,7.40
2023-03-10T15:34:37.550Z,7.30
2023-03-10T15:37:39.422Z,7.20
2023-03-10T15:40:42.168Z,7.00
2023-03-10T15:43:43.992Z,7.00
2023-03-10T15:46:46.657Z,7.10
2023-03-10T15:49:48.519Z,7.20
2023-03-10T15:52:53.844Z,7.10
2023-03-10T15:55:56.300Z,6.70
2023-03-10T15:58:58.191Z,6.10
2023-03-10T16:02:00.038Z,5.80
2023-03-10T16:05:01.953Z,5.80
2023-03-10T16:08:07.728Z,6.10
2023-03-10T16:11:18.808Z,6.30
2023-03-10T16:14:20.547Z,6.40
2023-03-10T16:17:23.674Z,6.60
2023-03-10T16:20:25.563Z,6.60
2023-03-10T16:23:28.651Z,6.50
2023-03-10T16:26:30.513Z,6.50
2023-03-10T16:29:32.292Z,6.40
2023-03-10T16:32:34.159Z,6.30
2023-03-10T16:35:38.568Z,6.30
2023-03-10T16:38:40.529Z,6.30
2023-03-10T16:41:42.650Z,6.20
2023-03-10T16:44:44.423Z,6.30
2023-03-10T16:47:47.400Z,6.40
2023-03-10T16:50:50.156Z,6.30
2023-03-10T16:53:53.319Z,6.10
2023-03-10T16:57:01.399Z,6.10
2023-03-10T17:00:05.414Z,6.00
